sensor_id;sensor_type;location;lat;lon;timestamp;temperature;humidity
26743;DHT22;14341;51.256;22.478;2022-08-01T00:01:33;16.30;99.90
26743;DHT22;14341;51.256;22.478;2022-08-01T00:04:37;16.30;99.90
26743;DHT22;14341;51.256;22.478;2022-08-01T00:07:40;16.30;99.90
26743;DHT22;14341;51.256;22.478;2022-08-01T00:10:45;16.20;99.90
26743;DHT22;14341;51.256;22.478;2022-08-01T00:13:48;16.10;99.90
26743;DHT22;14341;51.256;22.478;2022-08-01T00:16:51;16.10;99.90
26743;DHT22;14341;51.256;22.478;2022-08-01T00:19:55;16.10;99.90
26743;DHT22;14341;51.256;22.478;2022-08-01T00:22:58;15.90;99.90
26743;DHT22;14341;51.256;22.478;2022-08-01T00:26:05;15.90;99.90
26743;DHT22;14341;51.256;22.478;2022-08-01T00:29:08;15.90;99.90
26743;DHT22;14341;51.256;22.478;2022-08-01T00:32:32;15.80;99.90
26743;DHT22;14341;51.256;22.478;2022-08-01T00:35:35;15.80;99.90
26743;DHT22;14341;51.256;22.478;2022-08-01T00:38:38;15.80;99.90
26743;DHT22;14341;51.256;22.478;2022-08-01T00:41:43;15.80;99.90
26743;DHT22;14341;51.256;22.478;2022-08-01T00:44:46;15.70;99.90
26743;DHT22;14341;51.256;22.478;2022-08-01T00:47:50;15.70;99.90
26743;DHT22;14341;51.256;22.478;2022-08-01T00:50:56;15.70;99.90
26743;DHT22;14341;51.256;22.478;2022-08-01T00:54:00;15.70;99.90
26743;DHT22;14341;51.256;22.478;2022-08-01T00:57:06;15.70;99.90
26743;DHT22;14341;51.256;22.478;2022-08-01T01:03:33;15.70;99.90
26743;DHT22;14341;51.256;22.478;2022-08-01T01:07:02;15.70;99.90
26743;DHT22;14341;51.256;22.478;2022-08-01T01:10:15;15.70;99.90
26743;DHT22;14341;51.256;22.478;2022-08-01T01:13:24;15.70;99.90
26743;DHT22;14341;51.256;22.478;2022-08-01T01:16:30;15.70;99.90
26743;DHT22;14341;51.256;22.478;2022-08-01T01:19:39;15.70;99.90
26743;DHT22;14341;51.256;22.478;2022-08-01T01:23:05;15.80;99.90
26743;DHT22;14341;51.256;22.478;2022-08-01T01:26:28;15.70;99.90
26743;DHT22;14341;51.256;22.478;2022-08-01T01:29:38;15.70;99.90
26743;DHT22;14341;51.256;22.478;2022-08-01T01:33:04;15.60;99.90
26743;DHT22;14341;51.256;22.478;2022-08-01T01:36:09;15.50;99.90
26743;DHT22;14341;51.256;22.478;2022-08-01T01:39:15;15.50;99.90
26743;DHT22;14341;51.256;22.478;2022-08-01T01:42:19;15.50;99.90
26743;DHT22;14341;51.256;22.478;2022-08-01T01:45:25;15.60;99.90
26743;DHT22;14341;51.256;22.478;2022-08-01T01:48:29;15.50;99.90
26743;DHT22;14341;51.256;22.478;2022-08-01T01:51:34;15.50;99.90
26743;DHT22;14341;51.256;22.478;2022-08-01T01:54:40;15.40;99.90
26743;DHT22;14341;51.256;22.478;2022-08-01T01:57:46;15.40;99.90
26743;DHT22;14341;51.256;22.478;2022-08-01T02:00:52;15.40;99.90
26743;DHT22;14341;51.256;22.478;2022-08-01T02:03:58;15.40;99.90
26743;DHT22;14341;51.256;22.478;2022-08-01T02:07:05;15.40;99.90
26743;DHT22;14341;51.256;22.478;2022-08-01T02:10:12;15.40;99.90
26743;DHT22;14341;51.256;22.478;2022-08-01T02:13:16;15.30;99.90
26743;DHT22;14341;51.256;22.478;2022-08-01T02:16:26;15.30;99.90
26743;DHT22;14341;51.256;22.478;2022-08-01T02:19:33;15.30;99.90
26743;DHT22;14341;51.256;22.478;2022-08-01T02:22:42;15.30;99.90
26743;DHT22;14341;51.256;22.478;2022-08-01T02:25:50;15.30;99.90
26743;DHT22;14341;51.256;22.478;2022-08-01T02:29:16;15.30;99.90
26743;DHT22;14341;51.256;22.478;2022-08-01T02:32:25;15.20;99.90
26743;DHT22;14341;51.256;22.478;2022-08-01T02:35:32;15.30;99.90
26743;DHT22;14341;51.256;22.478;2022-08-01T02:38:57;15.20;99.90
26743;DHT22;14341;51.256;22.478;2022-08-01T02:42:06;15.20;99.90
26743;DHT22;14341;51.256;22.478;2022-08-01T02:45:11;15.10;99.90
26743;DHT22;14341;51.256;22.478;2022-08-01T02:48:17;15.00;99.90
26743;DHT22;14341;51.256;22.478;2022-08-01T02:51:23;15.00;99.90
26743;DHT22;14341;51.256;22.478;2022-08-01T02:54:28;15.00;99.90
26743;DHT22;14341;51.256;22.478;2022-08-01T02:57:32;15.00;99.90
26743;DHT22;14341;51.256;22.478;2022-08-01T03:00:53;15.00;99.90
26743;DHT22;14341;51.256;22.478;2022-08-01T03:03:59;15.10;99.90
26743;DHT22;14341;51.256;22.478;2022-08-01T03:07:04;15.10;99.90
26743;DHT22;14341;51.256;22.478;2022-08-01T03:10:10;15.10;99.90
26743;DHT22;14341;51.256;22.478;2022-08-01T03:13:15;15.10;99.90
26743;DHT22;14341;51.256;22.478;2022-08-01T03:16:19;15.00;99.90
26743;DHT22;14341;51.256;22.478;2022-08-01T03:19:27;15.10;99.90
26743;DHT22;14341;51.256;22.478;2022-08-01T03:22:32;15.10;99.90
26743;DHT22;14341;51.256;22.478;2022-08-01T03:25:40;15.10;99.90
26743;DHT22;14341;51.256;22.478;2022-08-01T03:28:46;15.10;99.90
26743;DHT22;14341;51.256;22.478;2022-08-01T03:31:51;15.10;99.90
26743;DHT22;14341;51.256;22.478;2022-08-01T03:34:56;15.10;99.90
26743;DHT22;14341;51.256;22.478;2022-08-01T03:38:00;15.10;99.90
26743;DHT22;14341;51.256;22.478;2022-08-01T03:41:21;15.20;99.90
26743;DHT22;14341;51.256;22.478;2022-08-01T03:44:27;15.10;99.90
26743;DHT22;14341;51.256;22.478;2022-08-01T03:47:34;15.10;99.90
26743;DHT22;14341;51.256;22.478;2022-08-01T03:50:50;15.20;99.90
26743;DHT22;14341;51.256;22.478;2022-08-01T03:53:55;15.10;99.90
26743;DHT22;14341;51.256;22.478;2022-08-01T03:57:00;15.10;99.90
26743;DHT22;14341;51.256;22.478;2022-08-01T04:00:06;15.10;99.90
26743;DHT22;14341;51.256;22.478;2022-08-01T04:03:13;15.10;99.90
26743;DHT22;14341;51.256;22.478;2022-08-01T04:06:18;15.10;99.90
26743;DHT22;14341;51.256;22.478;2022-08-01T04:09:22;15.10;99.90
26743;DHT22;14341;51.256;22.478;2022-08-01T04:12:25;15.10;99.90
26743;DHT22;14341;51.256;22.478;2022-08-01T04:15:29;15.10;99.90
26743;DHT22;14341;51.256;22.478;2022-08-01T04:18:32;15.10;99.90
26743;DHT22;14341;51.256;22.478;2022-08-01T04:21:37;15.10;99.90
26743;DHT22;14341;51.256;22.478;2022-08-01T04:24:42;15.10;99.90
26743;DHT22;14341;51.256;22.478;2022-08-01T04:27:47;15.00;99.90
26743;DHT22;14341;51.256;22.478;2022-08-01T04:30:54;15.00;99.90
26743;DHT22;14341;51.256;22.478;2022-08-01T04:34:05;15.10;99.90
26743;DHT22;14341;51.256;22.478;2022-08-01T04:37:10;15.10;99.90
26743;DHT22;14341;51.256;22.478;2022-08-01T04:40:14;15.10;99.90
26743;DHT22;14341;51.256;22.478;2022-08-01T04:43:19;15.20;99.90
26743;DHT22;14341;51.256;22.478;2022-08-01T04:46:22;15.20;99.90
26743;DHT22;14341;51.256;22.478;2022-08-01T04:49:26;15.20;99.90
26743;DHT22;14341;51.256;22.478;2022-08-01T04:52:35;15.20;99.90
26743;DHT22;14341;51.256;22.478;2022-08-01T04:55:38;15.30;99.90
26743;DHT22;14341;51.256;22.478;2022-08-01T04:58:43;15.30;99.90
26743;DHT22;14341;51.256;22.478;2022-08-01T05:01:49;15.30;99.90
26743;DHT22;14341;51.256;22.478;2022-08-01T05:04:53;15.20;99.90
26743;DHT22;14341;51.256;22.478;2022-08-01T05:07:59;15.40;99.90
26743;DHT22;14341;51.256;22.478;2022-08-01T05:11:03;15.40;99.90
26743;DHT22;14341;51.256;22.478;2022-08-01T05:14:06;15.30;99.90
26743;DHT22;14341;51.256;22.478;2022-08-01T05:17:10;15.40;99.90
26743;DHT22;14341;51.256;22.478;2022-08-01T05:20:13;15.50;99.90
26743;DHT22;14341;51.256;22.478;2022-08-01T05:23:18;15.50;99.90
26743;DHT22;14341;51.256;22.478;2022-08-01T05:26:41;15.60;99.90
26743;DHT22;14341;51.256;22.478;2022-08-01T05:29:45;15.60;99.90
26743;DHT22;14341;51.256;22.478;2022-08-01T05:32:48;15.60;99.90
26743;DHT22;14341;51.256;22.478;2022-08-01T05:35:51;15.60;99.90
26743;DHT22;14341;51.256;22.478;2022-08-01T05:38:56;15.70;99.90
26743;DHT22;14341;51.256;22.478;2022-08-01T05:41:59;15.80;99.90
26743;DHT22;14341;51.256;22.478;2022-08-01T05:45:04;15.90;99.90
26743;DHT22;14341;51.256;22.478;2022-08-01T05:48:08;16.00;99.90
26743;DHT22;14341;51.256;22.478;2022-08-01T05:51:11;16.00;99.90
26743;DHT22;14341;51.256;22.478;2022-08-01T05:54:16;16.00;99.90
26743;DHT22;14341;51.256;22.478;2022-08-01T05:57:19;16.00;99.90
26743;DHT22;14341;51.256;22.478;2022-08-01T06:00:23;16.00;99.90
26743;DHT22;14341;51.256;22.478;2022-08-01T06:03:27;16.00;99.90
26743;DHT22;14341;51.256;22.478;2022-08-01T06:06:34;15.90;99.90
26743;DHT22;14341;51.256;22.478;2022-08-01T06:09:39;15.70;99.90
26743;DHT22;14341;51.256;22.478;2022-08-01T06:12:43;15.60;99.90
26743;DHT22;14341;51.256;22.478;2022-08-01T06:15:48;15.60;99.90
26743;DHT22;14341;51.256;22.478;2022-08-01T06:18:52;15.60;99.90
26743;DHT22;14341;51.256;22.478;2022-08-01T06:21:58;17.80;99.90
26743;DHT22;14341;51.256;22.478;2022-08-01T06:25:08;15.80;99.90
26743;DHT22;14341;51.256;22.478;2022-08-01T06:28:13;15.40;99.90
26743;DHT22;14341;51.256;22.478;2022-08-01T06:31:17;15.40;99.90
26743;DHT22;14341;51.256;22.478;2022-08-01T06:34:21;16.10;99.90
26743;DHT22;14341;51.256;22.478;2022-08-01T06:37:29;14.40;99.90
26743;DHT22;14341;51.256;22.478;2022-08-01T06:40:34;16.20;99.90
26743;DHT22;14341;51.256;22.478;2022-08-01T06:43:39;16.30;99.90
26743;DHT22;14341;51.256;22.478;2022-08-01T06:46:44;16.50;99.90
26743;DHT22;14341;51.256;22.478;2022-08-01T06:49:49;16.60;99.90
26743;DHT22;14341;51.256;22.478;2022-08-01T06:52:53;16.50;99.90
26743;DHT22;14341;51.256;22.478;2022-08-01T06:55:58;16.60;99.90
26743;DHT22;14341;51.256;22.478;2022-08-01T07:04:03;16.70;99.90
26743;DHT22;14341;51.256;22.478;2022-08-01T07:07:07;16.90;99.90
26743;DHT22;14341;51.256;22.478;2022-08-01T07:10:11;17.00;99.90
26743;DHT22;14341;51.256;22.478;2022-08-01T07:13:16;17.20;99.90
26743;DHT22;14341;51.256;22.478;2022-08-01T07:16:23;17.20;99.90
26743;DHT22;14341;51.256;22.478;2022-08-01T07:19:26;17.30;99.90
26743;DHT22;14341;51.256;22.478;2022-08-01T07:22:30;17.70;99.90
26743;DHT22;14341;51.256;22.478;2022-08-01T07:25:38;17.90;99.90
26743;DHT22;14341;51.256;22.478;2022-08-01T07:28:54;18.00;99.90
26743;DHT22;14341;51.256;22.478;2022-08-01T07:31:58;18.00;99.90
26743;DHT22;14341;51.256;22.478;2022-08-01T07:35:01;18.00;99.90
26743;DHT22;14341;51.256;22.478;2022-08-01T07:38:05;17.90;99.90
26743;DHT22;14341;51.256;22.478;2022-08-01T07:41:13;18.10;99.90
26743;DHT22;14341;51.256;22.478;2022-08-01T07:44:18;18.10;99.90
26743;DHT22;14341;51.256;22.478;2022-08-01T07:47:23;18.30;99.90
26743;DHT22;14341;51.256;22.478;2022-08-01T07:50:27;18.20;99.90
26743;DHT22;14341;51.256;22.478;2022-08-01T07:53:35;18.20;99.90
26743;DHT22;14341;51.256;22.478;2022-08-01T07:56:38;18.60;99.90
26743;DHT22;14341;51.256;22.478;2022-08-01T07:59:43;18.70;99.90
26743;DHT22;14341;51.256;22.478;2022-08-01T08:02:46;19.00;99.90
26743;DHT22;14341;51.256;22.478;2022-08-01T08:05:50;19.50;99.90
26743;DHT22;14341;51.256;22.478;2022-08-01T08:09:01;20.00;99.90
26743;DHT22;14341;51.256;22.478;2022-08-01T08:12:06;20.20;99.90
26743;DHT22;14341;51.256;22.478;2022-08-01T08:15:12;20.50;99.90
26743;DHT22;14341;51.256;22.478;2022-08-01T08:18:15;20.80;99.90
26743;DHT22;14341;51.256;22.478;2022-08-01T08:21:19;21.40;99.90
26743;DHT22;14341;51.256;22.478;2022-08-01T08:24:22;21.70;99.90
26743;DHT22;14341;51.256;22.478;2022-08-01T08:27:28;21.60;99.50
26743;DHT22;14341;51.256;22.478;2022-08-01T08:30:33;21.50;93.30
26743;DHT22;14341;51.256;22.478;2022-08-01T08:33:36;21.30;90.00
26743;DHT22;14341;51.256;22.478;2022-08-01T08:36:40;20.90;85.60
26743;DHT22;14341;51.256;22.478;2022-08-01T08:39:49;20.60;90.60
26743;DHT22;14341;51.256;22.478;2022-08-01T08:42:52;20.20;94.70
26743;DHT22;14341;51.256;22.478;2022-08-01T08:45:58;20.10;99.90
26743;DHT22;14341;51.256;22.478;2022-08-01T08:49:02;20.00;99.90
26743;DHT22;14341;51.256;22.478;2022-08-01T08:52:07;19.70;99.90
26743;DHT22;14341;51.256;22.478;2022-08-01T08:55:12;19.90;99.90
26743;DHT22;14341;51.256;22.478;2022-08-01T08:58:22;19.80;99.90
26743;DHT22;14341;51.256;22.478;2022-08-01T09:01:34;19.70;99.90
26743;DHT22;14341;51.256;22.478;2022-08-01T09:04:38;19.70;99.90
26743;DHT22;14341;51.256;22.478;2022-08-01T09:07:42;20.00;99.90
26743;DHT22;14341;51.256;22.478;2022-08-01T09:10:45;20.20;99.90
26743;DHT22;14341;51.256;22.478;2022-08-01T09:14:03;20.20;99.90
26743;DHT22;14341;51.256;22.478;2022-08-01T09:17:09;20.40;99.90
26743;DHT22;14341;51.256;22.478;2022-08-01T09:20:23;20.40;99.90
26743;DHT22;14341;51.256;22.478;2022-08-01T09:23:33;20.50;99.40
26743;DHT22;14341;51.256;22.478;2022-08-01T09:26:37;20.50;99.90
26743;DHT22;14341;51.256;22.478;2022-08-01T09:29:40;20.30;96.20
26743;DHT22;14341;51.256;22.478;2022-08-01T09:32:57;20.60;99.90
26743;DHT22;14341;51.256;22.478;2022-08-01T09:36:02;20.90;99.90
26743;DHT22;14341;51.256;22.478;2022-08-01T09:39:12;21.20;93.30
26743;DHT22;14341;51.256;22.478;2022-08-01T09:42:20;21.20;82.00
26743;DHT22;14341;51.256;22.478;2022-08-01T09:45:31;21.30;99.90
26743;DHT22;14341;51.256;22.478;2022-08-01T09:48:59;21.20;69.00
26743;DHT22;14341;51.256;22.478;2022-08-01T09:52:13;21.20;65.80
26743;DHT22;14341;51.256;22.478;2022-08-01T09:55:21;21.50;87.60
26743;DHT22;14341;51.256;22.478;2022-08-01T09:58:24;21.90;83.60
26743;DHT22;14341;51.256;22.478;2022-08-01T10:01:40;21.90;46.50
26743;DHT22;14341;51.256;22.478;2022-08-01T10:04:49;22.00;22.90
26743;DHT22;14341;51.256;22.478;2022-08-01T10:08:03;22.20;50.30
26743;DHT22;14341;51.256;22.478;2022-08-01T10:11:10;22.30;6.90
26743;DHT22;14341;51.256;22.478;2022-08-01T10:14:18;22.50;16.50
26743;DHT22;14341;51.256;22.478;2022-08-01T10:17:24;22.80;1.00
26743;DHT22;14341;51.256;22.478;2022-08-01T10:20:49;22.80;1.00
26743;DHT22;14341;51.256;22.478;2022-08-01T10:23:56;22.80;1.00
26743;DHT22;14341;51.256;22.478;2022-08-01T10:27:05;22.90;1.00
26743;DHT22;14341;51.256;22.478;2022-08-01T10:30:13;22.50;1.00
26743;DHT22;14341;51.256;22.478;2022-08-01T10:33:24;22.60;1.00
26743;DHT22;14341;51.256;22.478;2022-08-01T10:36:49;22.80;1.00
26743;DHT22;14341;51.256;22.478;2022-08-01T10:39:54;23.00;1.00
26743;DHT22;14341;51.256;22.478;2022-08-01T10:43:18;23.20;1.00
26743;DHT22;14341;51.256;22.478;2022-08-01T10:46:23;23.50;1.00
26743;DHT22;14341;51.256;22.478;2022-08-01T10:49:30;23.60;1.00
26743;DHT22;14341;51.256;22.478;2022-08-01T10:52:35;23.40;1.00
26743;DHT22;14341;51.256;22.478;2022-08-01T10:55:48;23.50;1.00
26743;DHT22;14341;51.256;22.478;2022-08-01T10:59:00;23.70;1.00
26743;DHT22;14341;51.256;22.478;2022-08-01T11:02:26;24.00;1.00
26743;DHT22;14341;51.256;22.478;2022-08-01T11:05:34;24.40;1.00
26743;DHT22;14341;51.256;22.478;2022-08-01T11:08:40;24.50;1.00
26743;DHT22;14341;51.256;22.478;2022-08-01T11:12:02;24.50;1.00
26743;DHT22;14341;51.256;22.478;2022-08-01T11:15:23;24.50;1.00
26743;DHT22;14341;51.256;22.478;2022-08-01T11:18:32;24.70;1.00
26743;DHT22;14341;51.256;22.478;2022-08-01T11:21:58;24.60;1.00
26743;DHT22;14341;51.256;22.478;2022-08-01T11:25:05;24.40;1.00
26743;DHT22;14341;51.256;22.478;2022-08-01T11:28:19;24.80;1.00
26743;DHT22;14341;51.256;22.478;2022-08-01T11:31:35;25.40;1.00
26743;DHT22;14341;51.256;22.478;2022-08-01T11:34:55;26.50;1.00
26743;DHT22;14341;51.256;22.478;2022-08-01T11:38:22;27.10;1.00
26743;DHT22;14341;51.256;22.478;2022-08-01T11:41:28;27.00;1.00
26743;DHT22;14341;51.256;22.478;2022-08-01T11:44:48;27.40;1.00
26743;DHT22;14341;51.256;22.478;2022-08-01T11:47:52;27.70;1.00
26743;DHT22;14341;51.256;22.478;2022-08-01T11:50:57;28.40;1.00
26743;DHT22;14341;51.256;22.478;2022-08-01T11:54:03;28.10;1.00
26743;DHT22;14341;51.256;22.478;2022-08-01T11:57:09;28.40;1.00
26743;DHT22;14341;51.256;22.478;2022-08-01T12:00:14;28.70;1.00
26743;DHT22;14341;51.256;22.478;2022-08-01T12:03:24;29.30;1.00
26743;DHT22;14341;51.256;22.478;2022-08-01T12:06:34;29.10;1.00
26743;DHT22;14341;51.256;22.478;2022-08-01T12:09:42;29.30;1.00
26743;DHT22;14341;51.256;22.478;2022-08-01T12:12:48;29.50;1.00
26743;DHT22;14341;51.256;22.478;2022-08-01T12:15:52;28.80;1.00
26743;DHT22;14341;51.256;22.478;2022-08-01T12:18:58;29.30;1.00
26743;DHT22;14341;51.256;22.478;2022-08-01T12:22:08;29.70;1.00
26743;DHT22;14341;51.256;22.478;2022-08-01T12:25:13;29.60;1.00
26743;DHT22;14341;51.256;22.478;2022-08-01T12:28:18;30.20;1.00
26743;DHT22;14341;51.256;22.478;2022-08-01T12:31:31;30.60;1.00
26743;DHT22;14341;51.256;22.478;2022-08-01T12:34:34;31.00;1.00
26743;DHT22;14341;51.256;22.478;2022-08-01T12:37:38;30.90;1.00
26743;DHT22;14341;51.256;22.478;2022-08-01T12:40:44;29.90;1.00
26743;DHT22;14341;51.256;22.478;2022-08-01T12:43:54;30.40;1.00
26743;DHT22;14341;51.256;22.478;2022-08-01T12:46:58;30.80;1.00
26743;DHT22;14341;51.256;22.478;2022-08-01T12:50:02;30.30;1.00
26743;DHT22;14341;51.256;22.478;2022-08-01T12:53:07;30.80;1.00
26743;DHT22;14341;51.256;22.478;2022-08-01T12:56:30;30.00;1.00
26743;DHT22;14341;51.256;22.478;2022-08-01T12:59:36;30.10;1.00
26743;DHT22;14341;51.256;22.478;2022-08-01T13:02:41;30.70;1.00
26743;DHT22;14341;51.256;22.478;2022-08-01T13:05:46;30.90;1.00
26743;DHT22;14341;51.256;22.478;2022-08-01T13:08:50;31.10;1.00
26743;DHT22;14341;51.256;22.478;2022-08-01T13:11:53;31.30;1.00
26743;DHT22;14341;51.256;22.478;2022-08-01T13:15:26;31.40;1.00
26743;DHT22;14341;51.256;22.478;2022-08-01T13:18:30;32.40;1.00
26743;DHT22;14341;51.256;22.478;2022-08-01T13:21:35;31.60;1.00
26743;DHT22;14341;51.256;22.478;2022-08-01T13:25:09;30.80;1.00
26743;DHT22;14341;51.256;22.478;2022-08-01T13:28:18;30.80;1.00
26743;DHT22;14341;51.256;22.478;2022-08-01T13:31:32;30.90;1.00
26743;DHT22;14341;51.256;22.478;2022-08-01T13:34:36;30.70;1.00
26743;DHT22;14341;51.256;22.478;2022-08-01T13:37:41;31.80;1.00
26743;DHT22;14341;51.256;22.478;2022-08-01T13:40:45;32.20;1.00
26743;DHT22;14341;51.256;22.478;2022-08-01T13:43:49;32.70;1.00
26743;DHT22;14341;51.256;22.478;2022-08-01T13:47:02;32.00;1.00
26743;DHT22;14341;51.256;22.478;2022-08-01T13:50:17;31.60;1.00
26743;DHT22;14341;51.256;22.478;2022-08-01T13:53:21;31.40;1.00
26743;DHT22;14341;51.256;22.478;2022-08-01T13:56:25;31.70;1.00
26743;DHT22;14341;51.256;22.478;2022-08-01T13:59:29;31.10;1.00
26743;DHT22;14341;51.256;22.478;2022-08-01T14:02:34;31.30;1.00
26743;DHT22;14341;51.256;22.478;2022-08-01T14:05:38;31.40;1.00
26743;DHT22;14341;51.256;22.478;2022-08-01T14:08:41;31.20;1.00
26743;DHT22;14341;51.256;22.478;2022-08-01T14:11:48;30.20;1.00
26743;DHT22;14341;51.256;22.478;2022-08-01T14:14:52;31.40;1.00
26743;DHT22;14341;51.256;22.478;2022-08-01T14:17:56;30.90;1.00
26743;DHT22;14341;51.256;22.478;2022-08-01T14:21:00;30.30;1.00
26743;DHT22;14341;51.256;22.478;2022-08-01T14:24:07;30.40;1.00
26743;DHT22;14341;51.256;22.478;2022-08-01T14:27:13;30.00;1.00
26743;DHT22;14341;51.256;22.478;2022-08-01T14:30:17;29.30;1.00
26743;DHT22;14341;51.256;22.478;2022-08-01T14:33:23;30.50;1.00
26743;DHT22;14341;51.256;22.478;2022-08-01T14:36:32;30.30;1.00
26743;DHT22;14341;51.256;22.478;2022-08-01T14:39:39;30.70;1.00
26743;DHT22;14341;51.256;22.478;2022-08-01T14:42:54;30.40;1.00
26743;DHT22;14341;51.256;22.478;2022-08-01T14:45:58;30.50;1.00
26743;DHT22;14341;51.256;22.478;2022-08-01T14:49:04;30.80;1.00
26743;DHT22;14341;51.256;22.478;2022-08-01T14:52:07;30.70;1.00
26743;DHT22;14341;51.256;22.478;2022-08-01T14:55:12;30.90;1.00
26743;DHT22;14341;51.256;22.478;2022-08-01T14:58:20;30.60;1.00
26743;DHT22;14341;51.256;22.478;2022-08-01T15:01:25;31.00;1.00
26743;DHT22;14341;51.256;22.478;2022-08-01T15:04:30;30.80;1.00
26743;DHT22;14341;51.256;22.478;2022-08-01T15:07:37;29.80;1.00
26743;DHT22;14341;51.256;22.478;2022-08-01T15:10:53;29.70;1.00
26743;DHT22;14341;51.256;22.478;2022-08-01T15:13:57;30.00;1.00
26743;DHT22;14341;51.256;22.478;2022-08-01T15:17:22;31.40;1.00
26743;DHT22;14341;51.256;22.478;2022-08-01T15:20:30;32.30;1.00
26743;DHT22;14341;51.256;22.478;2022-08-01T15:23:36;32.60;1.00
26743;DHT22;14341;51.256;22.478;2022-08-01T15:26:40;29.70;1.00
26743;DHT22;14341;51.256;22.478;2022-08-01T15:29:44;31.30;1.00
26743;DHT22;14341;51.256;22.478;2022-08-01T15:32:57;31.30;1.00
26743;DHT22;14341;51.256;22.478;2022-08-01T15:36:02;31.20;1.00
26743;DHT22;14341;51.256;22.478;2022-08-01T15:39:06;31.20;1.00
26743;DHT22;14341;51.256;22.478;2022-08-01T15:42:14;32.50;1.00
26743;DHT22;14341;51.256;22.478;2022-08-01T15:45:26;32.10;1.00
26743;DHT22;14341;51.256;22.478;2022-08-01T15:48:52;32.10;1.00
26743;DHT22;14341;51.256;22.478;2022-08-01T15:51:58;31.50;1.00
26743;DHT22;14341;51.256;22.478;2022-08-01T15:55:02;31.40;1.00
26743;DHT22;14341;51.256;22.478;2022-08-01T15:58:06;30.60;1.00
26743;DHT22;14341;51.256;22.478;2022-08-01T16:01:13;29.30;1.00
26743;DHT22;14341;51.256;22.478;2022-08-01T16:04:17;29.30;1.00
26743;DHT22;14341;51.256;22.478;2022-08-01T16:07:29;28.70;1.00
26743;DHT22;14341;51.256;22.478;2022-08-01T16:10:33;28.60;1.00
26743;DHT22;14341;51.256;22.478;2022-08-01T16:13:37;27.60;1.00
26743;DHT22;14341;51.256;22.478;2022-08-01T16:16:40;29.00;1.00
26743;DHT22;14341;51.256;22.478;2022-08-01T16:19:49;29.70;1.00
26743;DHT22;14341;51.256;22.478;2022-08-01T16:22:54;29.50;1.00
26743;DHT22;14341;51.256;22.478;2022-08-01T16:25:57;28.70;1.00
26743;DHT22;14341;51.256;22.478;2022-08-01T16:29:01;28.30;1.00
26743;DHT22;14341;51.256;22.478;2022-08-01T16:32:05;27.90;1.00
26743;DHT22;14341;51.256;22.478;2022-08-01T16:35:29;27.00;1.00
26743;DHT22;14341;51.256;22.478;2022-08-01T16:38:40;26.10;1.00
26743;DHT22;14341;51.256;22.478;2022-08-01T16:41:45;25.20;1.00
26743;DHT22;14341;51.256;22.478;2022-08-01T16:44:48;24.50;1.00
26743;DHT22;14341;51.256;22.478;2022-08-01T16:47:51;24.20;1.00
26743;DHT22;14341;51.256;22.478;2022-08-01T16:50:55;23.70;1.00
26743;DHT22;14341;51.256;22.478;2022-08-01T16:54:00;23.40;1.00
26743;DHT22;14341;51.256;22.478;2022-08-01T16:57:25;24.40;1.00
26743;DHT22;14341;51.256;22.478;2022-08-01T17:00:29;22.90;1.00
26743;DHT22;14341;51.256;22.478;2022-08-01T17:03:35;22.70;7.00
26743;DHT22;14341;51.256;22.478;2022-08-01T17:06:55;22.70;12.20
26743;DHT22;14341;51.256;22.478;2022-08-01T17:10:02;23.00;15.60
26743;DHT22;14341;51.256;22.478;2022-08-01T17:13:06;22.40;7.50
26743;DHT22;14341;51.256;22.478;2022-08-01T17:16:11;22.20;28.50
26743;DHT22;14341;51.256;22.478;2022-08-01T17:19:15;22.00;53.90
26743;DHT22;14341;51.256;22.478;2022-08-01T17:22:19;21.90;61.60
26743;DHT22;14341;51.256;22.478;2022-08-01T17:25:25;21.80;73.80
26743;DHT22;14341;51.256;22.478;2022-08-01T17:28:29;22.00;72.50
26743;DHT22;14341;51.256;22.478;2022-08-01T17:31:34;21.90;74.00
26743;DHT22;14341;51.256;22.478;2022-08-01T17:34:38;21.60;78.50
26743;DHT22;14341;51.256;22.478;2022-08-01T17:37:42;21.60;88.20
26743;DHT22;14341;51.256;22.478;2022-08-01T17:40:47;21.50;89.60
26743;DHT22;14341;51.256;22.478;2022-08-01T17:43:50;21.40;95.40
26743;DHT22;14341;51.256;22.478;2022-08-01T17:46:54;21.50;97.40
26743;DHT22;14341;51.256;22.478;2022-08-01T17:49:57;21.20;99.90
26743;DHT22;14341;51.256;22.478;2022-08-01T17:53:03;21.00;99.90
26743;DHT22;14341;51.256;22.478;2022-08-01T17:56:09;22.60;99.90
26743;DHT22;14341;51.256;22.478;2022-08-01T17:59:13;21.20;97.60
26743;DHT22;14341;51.256;22.478;2022-08-01T18:02:17;21.00;93.60
26743;DHT22;14341;51.256;22.478;2022-08-01T18:05:22;20.90;93.70
26743;DHT22;14341;51.256;22.478;2022-08-01T18:08:38;20.80;99.00
26743;DHT22;14341;51.256;22.478;2022-08-01T18:11:46;20.70;99.90
26743;DHT22;14341;51.256;22.478;2022-08-01T18:14:50;20.50;99.70
26743;DHT22;14341;51.256;22.478;2022-08-01T18:17:57;20.40;99.90
26743;DHT22;14341;51.256;22.478;2022-08-01T18:21:02;20.30;99.90
26743;DHT22;14341;51.256;22.478;2022-08-01T18:24:06;20.20;99.90
26743;DHT22;14341;51.256;22.478;2022-08-01T18:27:12;20.00;99.90
26743;DHT22;14341;51.256;22.478;2022-08-01T18:30:16;19.80;99.90
26743;DHT22;14341;51.256;22.478;2022-08-01T18:33:19;19.60;99.90
26743;DHT22;14341;51.256;22.478;2022-08-01T18:36:23;19.40;99.90
26743;DHT22;14341;51.256;22.478;2022-08-01T18:39:34;19.20;99.90
26743;DHT22;14341;51.256;22.478;2022-08-01T18:42:41;19.00;99.90
26743;DHT22;14341;51.256;22.478;2022-08-01T18:45:44;18.90;99.90
26743;DHT22;14341;51.256;22.478;2022-08-01T18:48:48;18.70;99.90
26743;DHT22;14341;51.256;22.478;2022-08-01T18:51:52;18.30;99.90
26743;DHT22;14341;51.256;22.478;2022-08-01T18:54:55;18.20;99.90
26743;DHT22;14341;51.256;22.478;2022-08-01T18:58:00;18.10;99.90
26743;DHT22;14341;51.256;22.478;2022-08-01T19:01:04;18.10;99.90
26743;DHT22;14341;51.256;22.478;2022-08-01T19:04:08;18.00;99.90
26743;DHT22;14341;51.256;22.478;2022-08-01T19:07:12;18.00;99.90
26743;DHT22;14341;51.256;22.478;2022-08-01T19:10:26;17.90;99.90
26743;DHT22;14341;51.256;22.478;2022-08-01T19:13:32;17.80;99.90
26743;DHT22;14341;51.256;22.478;2022-08-01T19:16:35;17.70;99.90
26743;DHT22;14341;51.256;22.478;2022-08-01T19:19:39;17.70;99.90
26743;DHT22;14341;51.256;22.478;2022-08-01T19:22:42;17.60;99.90
26743;DHT22;14341;51.256;22.478;2022-08-01T19:25:46;17.50;99.90
26743;DHT22;14341;51.256;22.478;2022-08-01T19:29:14;17.50;99.90
26743;DHT22;14341;51.256;22.478;2022-08-01T19:32:18;17.40;99.90
26743;DHT22;14341;51.256;22.478;2022-08-01T19:35:23;17.30;99.90
26743;DHT22;14341;51.256;22.478;2022-08-01T19:38:27;17.30;99.90